Hallock, MN

12:01 PM CDT on June 29, 2017 (GMT -0500)
Hallock Municipal

Weather History for KHCO - October, 2012

Change the Weather History Date:

Monday, October 29, 2012

  Actual Average Record
Temperature  
Mean Temperature 38 °F -  
Max Temperature 48 °F 45 °F 72 °F (1950)
Min Temperature 28 °F 25 °F 3 °F (1988)
Degree Days  
Heating Degree Days 27    
Moisture  
Dew Point 28 °F    
Average Humidity 72    
Maximum Humidity 93    
Minimum Humidity 53    
Precipitation  
Precipitation 0.00 in - - ()
Sea Level Pressure  
Sea Level Pressure 30.19 in    
Wind  
Wind Speed 12 mph (ESE)    
Max Wind Speed 15 mph    
Max Gust Speed 17 mph    
Visibility 10 miles    
Events      
Averages and records for this station are not official NWS values.
T = Trace of Precipitation, MM = Missing Value Source: NWS Daily Summary

Daily Weather History Graph

Daily Weather History Graph

Search for Another Location

Airport or City:

Trip Planner

Search our weather history database for the weather conditions in past years. The results will help you decide how hot, cold, wet, or windy it might be!

Date:

Astronomy

Oct. 29, 2012 Rise Set
Actual Time 8:10 AM CDT 6:11 PM CDT
Civil Twilight 7:37 AM CDT 6:44 PM CDT
Nautical Twilight 7:00 AM CDT 7:21 PM CDT
Astronomical Twilight 6:24 AM CDT 7:57 PM CDT
Moon 6:00 PM CDT 8:04 AM CDT
Length of Visible Light 11h 06m
Length of Day
10h 01m
Full, 100% of the Moon is Illuminated
Oct 29
Full
Oct 29
Full
Nov 6
Last Quarter
Nov 13
New
Nov 20
First Quarter

Hourly Weather History & Observations

Time (CDT) Temp. Windchill Dew Point Humidity Pressure Visibility Wind Dir Wind Speed Gust Speed Precip Events Conditions
12:13 AM 28.4 °F 18.5 °F 21.2 °F 74% 30.27 in 10.0 mi East 11.5 mph - N/A   Overcast
12:34 AM 28.4 °F 18.5 °F 21.2 °F 74% 30.26 in 10.0 mi East 11.5 mph - N/A   Overcast
12:54 AM 28.4 °F 19.1 °F 21.2 °F 74% 30.26 in 10.0 mi East 10.4 mph - N/A   Overcast
1:13 AM 28.4 °F 18.0 °F 21.2 °F 74% 30.25 in 10.0 mi East 12.7 mph - N/A   Overcast
1:34 AM 28.4 °F 18.5 °F 21.2 °F 74% 30.25 in 10.0 mi East 11.5 mph - N/A   Mostly Cloudy
1:54 AM 28.4 °F 19.1 °F 21.2 °F 74% 30.25 in 10.0 mi East 10.4 mph - N/A   Overcast
2:13 AM 28.4 °F 18.5 °F 21.2 °F 74% 30.24 in 10.0 mi East 11.5 mph - N/A   Overcast
2:34 AM 28.4 °F 19.1 °F 21.2 °F 74% 30.24 in 10.0 mi East 10.4 mph - N/A   Overcast
2:54 AM 28.4 °F 19.1 °F 21.2 °F 74% 30.24 in 10.0 mi East 10.4 mph - N/A   Mostly Cloudy
3:13 AM 28.4 °F 18.5 °F 21.2 °F 74% 30.23 in 10.0 mi East 11.5 mph - N/A   Mostly Cloudy
3:34 AM 28.4 °F 18.0 °F 21.2 °F 74% 30.22 in 10.0 mi East 12.7 mph - N/A   Overcast
3:54 AM 28.4 °F 18.5 °F 23.0 °F 80% 30.22 in 10.0 mi East 11.5 mph - N/A   Overcast
4:13 AM 28.4 °F 18.0 °F 24.8 °F 86% 30.22 in 10.0 mi East 12.7 mph - N/A   Overcast
4:34 AM 30.2 °F 19.3 °F 24.8 °F 80% 30.21 in 10.0 mi East 15.0 mph - N/A   Mostly Cloudy
4:54 AM 30.2 °F 20.2 °F 24.8 °F 80% 30.21 in 10.0 mi East 12.7 mph - N/A   Overcast
5:14 AM 30.2 °F 20.8 °F 24.8 °F 80% 30.21 in 10.0 mi East 11.5 mph - N/A   Overcast
5:54 AM 30.2 °F 20.2 °F 26.6 °F 86% 30.20 in 10.0 mi East 12.7 mph - N/A   Overcast
6:14 AM 30.2 °F 20.8 °F 26.6 °F 86% 30.21 in 10.0 mi East 11.5 mph - N/A   Overcast
6:54 AM 32.0 °F 23.0 °F 28.4 °F 87% 30.20 in 10.0 mi East 11.5 mph - N/A   Mostly Cloudy
7:14 AM 32.0 °F 23.0 °F 28.4 °F 87% 30.19 in 10.0 mi East 11.5 mph - N/A   Scattered Clouds
7:34 AM 32.0 °F 23.0 °F 28.4 °F 87% 30.20 in 10.0 mi East 11.5 mph 17.3 mph N/A   Mostly Cloudy
7:54 AM 32.0 °F 23.0 °F 28.4 °F 87% 30.20 in 10.0 mi East 11.5 mph - N/A   Overcast
8:14 AM 33.8 °F 25.8 °F 30.2 °F 87% 30.20 in 10.0 mi East 10.4 mph - N/A   Overcast
8:34 AM 32.0 °F 24.2 °F 30.2 °F 93% 30.21 in 10.0 mi East 9.2 mph - N/A   Overcast
8:54 AM 33.8 °F 25.3 °F 30.2 °F 87% 30.21 in 10.0 mi ESE 11.5 mph - N/A   Overcast
9:13 AM 33.8 °F 25.3 °F 30.2 °F 87% 30.21 in 10.0 mi East 11.5 mph - N/A   Overcast
9:34 AM 33.8 °F 24.3 °F 30.2 °F 87% 30.20 in 10.0 mi East 13.8 mph - N/A   Overcast
9:53 AM 33.8 °F 24.3 °F 32.0 °F 93% 30.19 in 10.0 mi East 13.8 mph - N/A   Mostly Cloudy
10:14 AM 35.6 °F 27.1 °F 32.0 °F 87% 30.19 in 10.0 mi ESE 12.7 mph - N/A   Mostly Cloudy
10:34 AM 35.6 °F 26.6 °F 33.8 °F 93% 30.19 in 10.0 mi ESE 13.8 mph - N/A   Overcast
10:54 AM 37.4 °F 29.8 °F 33.8 °F 87% 30.19 in 10.0 mi ESE 11.5 mph - N/A   Overcast
11:14 AM 37.4 °F 29.3 °F 33.8 °F 87% 30.19 in 10.0 mi ESE 12.7 mph - N/A   Overcast
11:34 AM 39.2 °F 31.6 °F 35.6 °F 87% 30.19 in 10.0 mi ESE 12.7 mph - N/A   Overcast
11:53 AM 39.2 °F 32.0 °F 35.6 °F 87% 30.19 in 10.0 mi ESE 11.5 mph 17.3 mph N/A   Overcast
12:53 PM 44.6 °F 38.1 °F 35.6 °F 71% 30.18 in 10.0 mi ESE 13.8 mph - N/A   Overcast
1:34 PM 44.6 °F 38.8 °F 33.8 °F 66% 30.18 in 10.0 mi SE 11.5 mph - N/A   Overcast
1:53 PM 44.6 °F 38.8 °F 35.6 °F 71% 30.18 in 10.0 mi ESE 11.5 mph - N/A   Overcast
2:14 PM 48.2 °F - 33.8 °F 58% 30.17 in 10.0 mi SSE 10.4 mph 16.1 mph N/A   Overcast
2:34 PM 48.2 °F - 33.8 °F 58% 30.17 in 10.0 mi ESE 10.4 mph - N/A   Scattered Clouds
3:14 PM 46.4 °F 41.9 °F 33.8 °F 62% 30.16 in 10.0 mi ESE 9.2 mph - N/A   Clear
3:34 PM 48.2 °F - 33.8 °F 58% 30.16 in 10.0 mi SE 11.5 mph 16.1 mph N/A   Clear
3:54 PM 48.2 °F - 33.8 °F 58% 30.15 in 10.0 mi SE 11.5 mph - N/A   Clear
4:14 PM 48.2 °F - 33.8 °F 58% 30.16 in 10.0 mi SE 13.8 mph - N/A   Clear
4:34 PM 48.2 °F - 32.0 °F 54% 30.16 in 10.0 mi SE 11.5 mph - N/A   Clear
4:54 PM 48.2 °F - 32.0 °F 54% 30.16 in 10.0 mi SSE 12.7 mph - N/A   Clear
5:14 PM 48.2 °F - 32.0 °F 54% 30.16 in 10.0 mi SE 9.2 mph - N/A   Clear
5:34 PM 46.4 °F 41.1 °F 32.0 °F 57% 30.16 in 10.0 mi ESE 11.5 mph - N/A   Clear
5:54 PM 46.4 °F 41.5 °F 30.2 °F 53% 30.16 in 10.0 mi ESE 10.4 mph - N/A   Clear
6:14 PM 44.6 °F 39.2 °F 30.2 °F 57% 30.16 in 10.0 mi ESE 10.4 mph - N/A   Clear
6:34 PM 42.8 °F 37.5 °F 30.2 °F 61% 30.16 in 10.0 mi East 9.2 mph - N/A   Clear
6:54 PM 39.2 °F 33.0 °F 30.2 °F 70% 30.17 in 10.0 mi East 9.2 mph - N/A   Clear
7:14 PM 39.2 °F 33.0 °F 30.2 °F 70% 30.17 in 10.0 mi ESE 9.2 mph - N/A   Clear
7:34 PM 37.4 °F 30.8 °F 30.2 °F 75% 30.18 in 10.0 mi ESE 9.2 mph - N/A   Clear
7:54 PM 39.2 °F 32.5 °F 28.4 °F 65% 30.17 in 10.0 mi ESE 10.4 mph - N/A   Clear
8:14 PM 39.2 °F 32.0 °F 28.4 °F 65% 30.17 in 10.0 mi ESE 11.5 mph - N/A   Clear
8:34 PM 39.2 °F 31.2 °F 26.6 °F 61% 30.18 in 10.0 mi SE 13.8 mph - N/A   Clear
8:54 PM 39.2 °F 31.6 °F 26.6 °F 61% 30.18 in 10.0 mi ESE 12.7 mph - N/A   Clear
9:14 PM 39.2 °F 31.6 °F 26.6 °F 61% 30.17 in 10.0 mi ESE 12.7 mph - N/A   Clear
9:34 PM 39.2 °F 32.0 °F 26.6 °F 61% 30.17 in 10.0 mi ESE 11.5 mph - N/A   Clear
9:54 PM 39.2 °F 32.5 °F 26.6 °F 61% 30.17 in 10.0 mi ESE 10.4 mph - N/A   Clear
10:14 PM 39.2 °F 31.6 °F 26.6 °F 61% 30.17 in 10.0 mi SE 12.7 mph - N/A   Clear
10:34 PM 39.2 °F 31.2 °F 26.6 °F 61% 30.17 in 10.0 mi ESE 13.8 mph - N/A   Clear
10:54 PM 39.2 °F 31.6 °F 26.6 °F 61% 30.17 in 10.0 mi ESE 12.7 mph 17.3 mph N/A   Clear
11:14 PM 39.2 °F 32.0 °F 26.6 °F 61% 30.18 in 10.0 mi SE 11.5 mph - N/A   Clear
11:33 PM 39.2 °F 32.0 °F 26.6 °F 61% 30.18 in 10.0 mi ESE 11.5 mph - N/A   Clear
11:54 PM 39.2 °F 32.0 °F 26.6 °F 61% 30.18 in 10.0 mi SE 11.5 mph - N/A   Clear